sensor_id;sensor_type;location;lat;lon;timestamp;P1;durP1;ratioP1;P2;durP2;ratioP2
2313;SDS011;42279;51.388;7.000;2023-02-11T00:00:25;36.67;;;22.63;;
2313;SDS011;42279;51.388;7.000;2023-02-11T00:02:51;31.13;;;19.87;;
2313;SDS011;42279;51.388;7.000;2023-02-11T00:05:17;35.23;;;21.30;;
2313;SDS011;42279;51.388;7.000;2023-02-11T00:07:43;32.03;;;21.10;;
2313;SDS011;42279;51.388;7.000;2023-02-11T00:10:09;45.23;;;22.53;;
2313;SDS011;42279;51.388;7.000;2023-02-11T00:12:37;33.27;;;19.30;;
2313;SDS011;42279;51.388;7.000;2023-02-11T00:15:04;35.77;;;23.10;;
2313;SDS011;42279;51.388;7.000;2023-02-11T00:17:30;34.70;;;21.50;;
2313;SDS011;42279;51.388;7.000;2023-02-11T00:19:56;33.27;;;21.17;;
2313;SDS011;42279;51.388;7.000;2023-02-11T00:22:25;34.47;;;17.97;;
2313;SDS011;42279;51.388;7.000;2023-02-11T00:24:51;29.67;;;20.50;;
2313;SDS011;42279;51.388;7.000;2023-02-11T00:27:17;32.67;;;21.20;;
2313;SDS011;42279;51.388;7.000;2023-02-11T00:29:43;27.03;;;17.40;;
2313;SDS011;42279;51.388;7.000;2023-02-11T00:32:10;35.93;;;21.30;;
2313;SDS011;42279;51.388;7.000;2023-02-11T00:34:36;30.30;;;20.07;;
2313;SDS011;42279;51.388;7.000;2023-02-11T00:37:02;33.77;;;20.90;;
2313;SDS011;42279;51.388;7.000;2023-02-11T00:39:28;38.80;;;23.03;;
2313;SDS011;42279;51.388;7.000;2023-02-11T00:41:54;29.93;;;20.83;;
2313;SDS011;42279;51.388;7.000;2023-02-11T00:44:20;27.20;;;18.60;;
2313;SDS011;42279;51.388;7.000;2023-02-11T00:46:46;31.90;;;21.07;;
2313;SDS011;42279;51.388;7.000;2023-02-11T00:49:13;28.10;;;16.57;;
2313;SDS011;42279;51.388;7.000;2023-02-11T00:51:39;29.53;;;19.17;;
2313;SDS011;42279;51.388;7.000;2023-02-11T00:54:05;29.50;;;19.37;;
2313;SDS011;42279;51.388;7.000;2023-02-11T00:56:31;28.07;;;18.73;;
2313;SDS011;42279;51.388;7.000;2023-02-11T00:58:57;29.30;;;19.23;;
2313;SDS011;42279;51.388;7.000;2023-02-11T01:01:23;32.80;;;17.90;;
2313;SDS011;42279;51.388;7.000;2023-02-11T01:03:49;27.73;;;19.40;;
2313;SDS011;42279;51.388;7.000;2023-02-11T01:06:17;20.47;;;15.00;;
2313;SDS011;42279;51.388;7.000;2023-02-11T01:08:43;31.93;;;20.30;;
2313;SDS011;42279;51.388;7.000;2023-02-11T01:11:13;28.03;;;18.90;;
2313;SDS011;42279;51.388;7.000;2023-02-11T01:13:40;39.10;;;19.87;;
2313;SDS011;42279;51.388;7.000;2023-02-11T01:16:07;28.20;;;15.80;;
2313;SDS011;42279;51.388;7.000;2023-02-11T01:18:33;28.23;;;17.73;;
2313;SDS011;42279;51.388;7.000;2023-02-11T01:20:59;27.43;;;17.43;;
2313;SDS011;42279;51.388;7.000;2023-02-11T01:23:25;30.70;;;15.67;;
2313;SDS011;42279;51.388;7.000;2023-02-11T01:25:51;25.03;;;16.67;;
2313;SDS011;42279;51.388;7.000;2023-02-11T01:28:24;24.43;;;15.00;;
2313;SDS011;42279;51.388;7.000;2023-02-11T01:30:51;34.30;;;18.00;;
2313;SDS011;42279;51.388;7.000;2023-02-11T01:33:17;25.03;;;16.10;;
2313;SDS011;42279;51.388;7.000;2023-02-11T01:35:44;22.27;;;13.97;;
2313;SDS011;42279;51.388;7.000;2023-02-11T01:38:15;21.40;;;14.53;;
2313;SDS011;42279;51.388;7.000;2023-02-11T01:40:49;29.70;;;20.33;;
2313;SDS011;42279;51.388;7.000;2023-02-11T01:43:15;29.70;;;19.40;;
2313;SDS011;42279;51.388;7.000;2023-02-11T01:48:12;33.13;;;18.60;;
2313;SDS011;42279;51.388;7.000;2023-02-11T01:50:39;28.00;;;19.43;;
2313;SDS011;42279;51.388;7.000;2023-02-11T01:53:06;30.33;;;17.07;;
2313;SDS011;42279;51.388;7.000;2023-02-11T01:55:52;34.73;;;16.37;;
2313;SDS011;42279;51.388;7.000;2023-02-11T01:58:37;26.13;;;15.90;;
2313;SDS011;42279;51.388;7.000;2023-02-11T02:01:05;22.10;;;15.93;;
2313;SDS011;42279;51.388;7.000;2023-02-11T02:03:33;27.17;;;17.60;;
2313;SDS011;42279;51.388;7.000;2023-02-11T02:06:05;34.13;;;15.57;;
2313;SDS011;42279;51.388;7.000;2023-02-11T02:10:58;27.17;;;17.70;;
2313;SDS011;42279;51.388;7.000;2023-02-11T02:13:25;24.70;;;15.93;;
2313;SDS011;42279;51.388;7.000;2023-02-11T02:15:53;22.07;;;14.67;;
2313;SDS011;42279;51.388;7.000;2023-02-11T02:18:22;28.20;;;18.37;;
2313;SDS011;42279;51.388;7.000;2023-02-11T02:20:56;22.83;;;16.87;;
2313;SDS011;42279;51.388;7.000;2023-02-11T02:26:16;19.90;;;15.50;;
2313;SDS011;42279;51.388;7.000;2023-02-11T02:31:25;26.70;;;18.07;;
2313;SDS011;42279;51.388;7.000;2023-02-11T02:36:37;29.60;;;18.20;;
2313;SDS011;42279;51.388;7.000;2023-02-11T02:39:07;24.30;;;17.37;;
2313;SDS011;42279;51.388;7.000;2023-02-11T02:41:34;30.47;;;18.87;;
2313;SDS011;42279;51.388;7.000;2023-02-11T02:44:01;25.83;;;15.07;;
2313;SDS011;42279;51.388;7.000;2023-02-11T02:46:28;27.10;;;16.43;;
2313;SDS011;42279;51.388;7.000;2023-02-11T02:48:55;29.10;;;17.80;;
2313;SDS011;42279;51.388;7.000;2023-02-11T02:51:25;22.83;;;15.70;;
2313;SDS011;42279;51.388;7.000;2023-02-11T03:06:55;24.73;;;16.20;;
2313;SDS011;42279;51.388;7.000;2023-02-11T03:11:50;22.33;;;13.30;;
2313;SDS011;42279;51.388;7.000;2023-02-11T03:14:16;28.07;;;16.40;;
2313;SDS011;42279;51.388;7.000;2023-02-11T03:16:44;25.90;;;17.00;;
2313;SDS011;42279;51.388;7.000;2023-02-11T03:19:20;23.87;;;17.03;;
2313;SDS011;42279;51.388;7.000;2023-02-11T03:21:47;23.60;;;14.20;;
2313;SDS011;42279;51.388;7.000;2023-02-11T03:24:15;19.03;;;13.30;;
2313;SDS011;42279;51.388;7.000;2023-02-11T03:26:45;23.87;;;16.73;;
2313;SDS011;42279;51.388;7.000;2023-02-11T03:34:14;29.90;;;16.00;;
2313;SDS011;42279;51.388;7.000;2023-02-11T03:36:48;24.27;;;17.10;;
2313;SDS011;42279;51.388;7.000;2023-02-11T03:39:20;29.00;;;17.33;;
2313;SDS011;42279;51.388;7.000;2023-02-11T03:41:48;28.20;;;16.90;;
2313;SDS011;42279;51.388;7.000;2023-02-11T03:44:14;23.50;;;16.67;;
2313;SDS011;42279;51.388;7.000;2023-02-11T03:46:42;27.00;;;16.57;;
2313;SDS011;42279;51.388;7.000;2023-02-11T03:49:11;25.53;;;12.63;;
2313;SDS011;42279;51.388;7.000;2023-02-11T03:51:38;30.20;;;15.80;;
2313;SDS011;42279;51.388;7.000;2023-02-11T03:54:06;23.87;;;16.47;;
2313;SDS011;42279;51.388;7.000;2023-02-11T03:56:35;21.07;;;12.20;;
2313;SDS011;42279;51.388;7.000;2023-02-11T03:59:03;17.50;;;10.80;;
2313;SDS011;42279;51.388;7.000;2023-02-11T04:01:29;22.50;;;15.60;;
2313;SDS011;42279;51.388;7.000;2023-02-11T04:03:55;17.77;;;12.80;;
2313;SDS011;42279;51.388;7.000;2023-02-11T04:06:21;23.93;;;14.53;;
2313;SDS011;42279;51.388;7.000;2023-02-11T04:08:47;23.20;;;16.80;;
2313;SDS011;42279;51.388;7.000;2023-02-11T04:11:13;21.37;;;14.70;;
2313;SDS011;42279;51.388;7.000;2023-02-11T04:13:40;26.43;;;15.40;;
2313;SDS011;42279;51.388;7.000;2023-02-11T04:16:07;23.00;;;14.50;;
2313;SDS011;42279;51.388;7.000;2023-02-11T04:18:33;28.20;;;16.30;;
2313;SDS011;42279;51.388;7.000;2023-02-11T04:20:59;27.23;;;15.47;;
2313;SDS011;42279;51.388;7.000;2023-02-11T04:23:25;23.50;;;15.30;;
2313;SDS011;42279;51.388;7.000;2023-02-11T04:25:51;18.63;;;11.83;;
2313;SDS011;42279;51.388;7.000;2023-02-11T04:28:17;24.30;;;12.97;;
2313;SDS011;42279;51.388;7.000;2023-02-11T04:30:43;24.40;;;16.63;;
2313;SDS011;42279;51.388;7.000;2023-02-11T04:33:09;32.60;;;17.97;;
2313;SDS011;42279;51.388;7.000;2023-02-11T04:35:35;26.13;;;16.97;;
2313;SDS011;42279;51.388;7.000;2023-02-11T04:38:01;31.73;;;20.37;;
2313;SDS011;42279;51.388;7.000;2023-02-11T04:40:27;33.17;;;17.00;;
2313;SDS011;42279;51.388;7.000;2023-02-11T04:42:53;34.00;;;19.47;;
2313;SDS011;42279;51.388;7.000;2023-02-11T04:45:19;33.27;;;17.63;;
2313;SDS011;42279;51.388;7.000;2023-02-11T04:47:45;24.47;;;16.40;;
2313;SDS011;42279;51.388;7.000;2023-02-11T04:50:11;29.43;;;18.17;;
2313;SDS011;42279;51.388;7.000;2023-02-11T04:52:37;26.07;;;17.63;;
2313;SDS011;42279;51.388;7.000;2023-02-11T04:55:03;24.83;;;17.43;;
2313;SDS011;42279;51.388;7.000;2023-02-11T04:57:29;30.87;;;17.27;;
2313;SDS011;42279;51.388;7.000;2023-02-11T04:59:55;29.07;;;16.20;;
2313;SDS011;42279;51.388;7.000;2023-02-11T05:02:21;28.00;;;16.77;;
2313;SDS011;42279;51.388;7.000;2023-02-11T05:04:47;34.10;;;18.70;;
2313;SDS011;42279;51.388;7.000;2023-02-11T05:07:13;30.77;;;15.57;;
2313;SDS011;42279;51.388;7.000;2023-02-11T05:09:39;30.10;;;15.70;;
2313;SDS011;42279;51.388;7.000;2023-02-11T05:12:05;35.13;;;17.30;;
2313;SDS011;42279;51.388;7.000;2023-02-11T05:14:31;24.50;;;16.33;;
2313;SDS011;42279;51.388;7.000;2023-02-11T05:16:57;28.13;;;17.10;;
2313;SDS011;42279;51.388;7.000;2023-02-11T05:19:23;24.60;;;17.07;;
2313;SDS011;42279;51.388;7.000;2023-02-11T05:21:49;34.27;;;19.00;;
2313;SDS011;42279;51.388;7.000;2023-02-11T05:24:17;32.97;;;20.07;;
2313;SDS011;42279;51.388;7.000;2023-02-11T05:26:45;33.33;;;19.00;;
2313;SDS011;42279;51.388;7.000;2023-02-11T05:29:11;32.20;;;21.00;;
2313;SDS011;42279;51.388;7.000;2023-02-11T05:31:37;33.70;;;20.00;;
2313;SDS011;42279;51.388;7.000;2023-02-11T05:34:03;31.80;;;17.07;;
2313;SDS011;42279;51.388;7.000;2023-02-11T05:36:29;34.00;;;19.67;;
2313;SDS011;42279;51.388;7.000;2023-02-11T05:38:55;45.57;;;20.33;;
2313;SDS011;42279;51.388;7.000;2023-02-11T05:41:21;36.97;;;20.00;;
2313;SDS011;42279;51.388;7.000;2023-02-11T05:43:47;35.73;;;22.17;;
2313;SDS011;42279;51.388;7.000;2023-02-11T05:46:15;40.60;;;20.70;;
2313;SDS011;42279;51.388;7.000;2023-02-11T05:48:41;32.50;;;19.23;;
2313;SDS011;42279;51.388;7.000;2023-02-11T05:51:07;39.93;;;21.20;;
2313;SDS011;42279;51.388;7.000;2023-02-11T05:53:33;36.00;;;21.57;;
2313;SDS011;42279;51.388;7.000;2023-02-11T05:55:59;36.93;;;19.60;;
2313;SDS011;42279;51.388;7.000;2023-02-11T05:58:25;33.90;;;20.07;;
2313;SDS011;42279;51.388;7.000;2023-02-11T06:00:51;26.07;;;17.00;;
2313;SDS011;42279;51.388;7.000;2023-02-11T06:03:17;39.10;;;23.23;;
2313;SDS011;42279;51.388;7.000;2023-02-11T06:05:44;34.47;;;19.73;;
2313;SDS011;42279;51.388;7.000;2023-02-11T06:08:10;38.83;;;20.93;;
2313;SDS011;42279;51.388;7.000;2023-02-11T06:10:36;46.80;;;24.67;;
2313;SDS011;42279;51.388;7.000;2023-02-11T06:13:02;30.57;;;18.77;;
2313;SDS011;42279;51.388;7.000;2023-02-11T06:15:28;35.20;;;20.47;;
2313;SDS011;42279;51.388;7.000;2023-02-11T06:17:54;38.03;;;21.47;;
2313;SDS011;42279;51.388;7.000;2023-02-11T06:20:20;41.00;;;22.30;;
2313;SDS011;42279;51.388;7.000;2023-02-11T06:22:46;37.80;;;23.23;;
2313;SDS011;42279;51.388;7.000;2023-02-11T06:25:13;43.77;;;22.23;;
2313;SDS011;42279;51.388;7.000;2023-02-11T06:27:39;33.03;;;20.40;;
2313;SDS011;42279;51.388;7.000;2023-02-11T06:30:05;41.60;;;23.40;;
2313;SDS011;42279;51.388;7.000;2023-02-11T06:32:31;37.50;;;22.00;;
2313;SDS011;42279;51.388;7.000;2023-02-11T06:34:57;37.80;;;23.50;;
2313;SDS011;42279;51.388;7.000;2023-02-11T06:37:23;39.33;;;23.53;;
2313;SDS011;42279;51.388;7.000;2023-02-11T06:39:49;39.20;;;18.07;;
2313;SDS011;42279;51.388;7.000;2023-02-11T06:42:15;47.57;;;24.70;;
2313;SDS011;42279;51.388;7.000;2023-02-11T06:44:41;37.60;;;20.80;;
2313;SDS011;42279;51.388;7.000;2023-02-11T06:47:08;46.53;;;21.60;;
2313;SDS011;42279;51.388;7.000;2023-02-11T06:49:34;44.90;;;21.83;;
2313;SDS011;42279;51.388;7.000;2023-02-11T06:52:00;37.50;;;21.40;;
2313;SDS011;42279;51.388;7.000;2023-02-11T06:54:26;43.53;;;22.80;;
2313;SDS011;42279;51.388;7.000;2023-02-11T06:56:52;41.53;;;25.00;;
2313;SDS011;42279;51.388;7.000;2023-02-11T06:59:20;47.87;;;23.00;;
2313;SDS011;42279;51.388;7.000;2023-02-11T07:01:46;51.43;;;24.83;;
2313;SDS011;42279;51.388;7.000;2023-02-11T07:04:12;40.07;;;19.97;;
2313;SDS011;42279;51.388;7.000;2023-02-11T07:06:39;54.17;;;22.53;;
2313;SDS011;42279;51.388;7.000;2023-02-11T07:09:05;42.93;;;23.40;;
2313;SDS011;42279;51.388;7.000;2023-02-11T07:11:32;52.17;;;24.20;;
2313;SDS011;42279;51.388;7.000;2023-02-11T07:13:59;44.93;;;24.97;;
2313;SDS011;42279;51.388;7.000;2023-02-11T07:16:26;44.07;;;20.73;;
2313;SDS011;42279;51.388;7.000;2023-02-11T07:18:54;46.03;;;25.03;;
2313;SDS011;42279;51.388;7.000;2023-02-11T07:21:20;49.57;;;26.00;;
2313;SDS011;42279;51.388;7.000;2023-02-11T07:23:48;45.83;;;25.63;;
2313;SDS011;42279;51.388;7.000;2023-02-11T07:26:15;53.13;;;24.53;;
2313;SDS011;42279;51.388;7.000;2023-02-11T07:28:41;53.00;;;23.07;;
2313;SDS011;42279;51.388;7.000;2023-02-11T07:31:11;41.20;;;20.30;;
2313;SDS011;42279;51.388;7.000;2023-02-11T07:33:38;54.87;;;25.37;;
2313;SDS011;42279;51.388;7.000;2023-02-11T07:36:05;41.00;;;22.03;;
2313;SDS011;42279;51.388;7.000;2023-02-11T07:38:31;54.37;;;24.50;;
2313;SDS011;42279;51.388;7.000;2023-02-11T07:41:01;55.50;;;27.80;;
2313;SDS011;42279;51.388;7.000;2023-02-11T07:43:27;51.10;;;24.03;;
2313;SDS011;42279;51.388;7.000;2023-02-11T07:45:53;52.90;;;23.07;;
2313;SDS011;42279;51.388;7.000;2023-02-11T07:48:19;38.73;;;22.00;;
2313;SDS011;42279;51.388;7.000;2023-02-11T07:50:45;45.50;;;22.43;;
2313;SDS011;42279;51.388;7.000;2023-02-11T07:53:11;53.83;;;22.30;;
2313;SDS011;42279;51.388;7.000;2023-02-11T07:55:37;54.90;;;26.90;;
2313;SDS011;42279;51.388;7.000;2023-02-11T07:58:03;44.37;;;23.50;;
2313;SDS011;42279;51.388;7.000;2023-02-11T08:00:29;45.37;;;23.93;;
2313;SDS011;42279;51.388;7.000;2023-02-11T08:02:56;55.10;;;21.90;;
2313;SDS011;42279;51.388;7.000;2023-02-11T08:05:22;64.20;;;23.17;;
2313;SDS011;42279;51.388;7.000;2023-02-11T08:07:51;61.00;;;23.53;;
2313;SDS011;42279;51.388;7.000;2023-02-11T08:10:17;41.37;;;17.93;;
2313;SDS011;42279;51.388;7.000;2023-02-11T08:12:44;52.83;;;22.13;;
2313;SDS011;42279;51.388;7.000;2023-02-11T08:15:10;42.43;;;19.50;;
2313;SDS011;42279;51.388;7.000;2023-02-11T08:17:36;43.93;;;22.63;;
2313;SDS011;42279;51.388;7.000;2023-02-11T08:20:03;50.27;;;22.23;;
2313;SDS011;42279;51.388;7.000;2023-02-11T08:22:32;40.40;;;19.33;;
2313;SDS011;42279;51.388;7.000;2023-02-11T08:24:59;42.07;;;22.20;;
2313;SDS011;42279;51.388;7.000;2023-02-11T08:27:25;52.43;;;22.40;;
2313;SDS011;42279;51.388;7.000;2023-02-11T08:29:54;50.17;;;22.17;;
2313;SDS011;42279;51.388;7.000;2023-02-11T08:32:21;45.07;;;21.87;;
2313;SDS011;42279;51.388;7.000;2023-02-11T08:34:52;48.13;;;21.93;;
2313;SDS011;42279;51.388;7.000;2023-02-11T08:37:19;37.50;;;19.93;;
2313;SDS011;42279;51.388;7.000;2023-02-11T08:39:46;55.07;;;23.20;;
2313;SDS011;42279;51.388;7.000;2023-02-11T08:42:13;47.37;;;17.90;;
2313;SDS011;42279;51.388;7.000;2023-02-11T08:44:42;41.57;;;20.43;;
2313;SDS011;42279;51.388;7.000;2023-02-11T08:47:08;49.03;;;22.00;;
2313;SDS011;42279;51.388;7.000;2023-02-11T08:49:34;53.03;;;23.77;;
2313;SDS011;42279;51.388;7.000;2023-02-11T08:52:00;42.30;;;22.13;;
2313;SDS011;42279;51.388;7.000;2023-02-11T08:54:28;39.20;;;21.63;;
2313;SDS011;42279;51.388;7.000;2023-02-11T08:56:54;48.03;;;21.93;;
2313;SDS011;42279;51.388;7.000;2023-02-11T08:59:20;56.30;;;24.87;;
2313;SDS011;42279;51.388;7.000;2023-02-11T09:01:46;52.37;;;22.37;;
2313;SDS011;42279;51.388;7.000;2023-02-11T09:04:12;49.70;;;22.20;;
2313;SDS011;42279;51.388;7.000;2023-02-11T09:06:38;41.83;;;19.33;;
2313;SDS011;42279;51.388;7.000;2023-02-11T09:09:05;52.97;;;23.97;;
2313;SDS011;42279;51.388;7.000;2023-02-11T09:11:33;47.47;;;22.83;;
2313;SDS011;42279;51.388;7.000;2023-02-11T09:13:59;47.33;;;22.33;;
2313;SDS011;42279;51.388;7.000;2023-02-11T09:16:30;44.97;;;17.70;;
2313;SDS011;42279;51.388;7.000;2023-02-11T09:18:57;46.70;;;21.47;;
2313;SDS011;42279;51.388;7.000;2023-02-11T09:21:23;45.93;;;22.20;;
2313;SDS011;42279;51.388;7.000;2023-02-11T09:23:49;52.63;;;21.23;;
2313;SDS011;42279;51.388;7.000;2023-02-11T09:26:17;54.73;;;23.90;;
2313;SDS011;42279;51.388;7.000;2023-02-11T09:28:43;44.10;;;21.70;;
2313;SDS011;42279;51.388;7.000;2023-02-11T09:31:11;42.70;;;22.37;;
2313;SDS011;42279;51.388;7.000;2023-02-11T09:33:39;44.23;;;20.20;;
2313;SDS011;42279;51.388;7.000;2023-02-11T09:36:12;45.70;;;23.60;;
2313;SDS011;42279;51.388;7.000;2023-02-11T09:38:38;55.40;;;20.20;;
2313;SDS011;42279;51.388;7.000;2023-02-11T09:41:04;54.33;;;22.53;;
2313;SDS011;42279;51.388;7.000;2023-02-11T09:43:35;54.43;;;23.33;;
2313;SDS011;42279;51.388;7.000;2023-02-11T09:46:03;41.17;;;20.23;;
2313;SDS011;42279;51.388;7.000;2023-02-11T09:48:36;45.43;;;20.00;;
2313;SDS011;42279;51.388;7.000;2023-02-11T09:51:42;43.70;;;22.20;;
2313;SDS011;42279;51.388;7.000;2023-02-11T09:56:59;66.33;;;27.00;;
2313;SDS011;42279;51.388;7.000;2023-02-11T09:59:46;52.37;;;24.80;;
2313;SDS011;42279;51.388;7.000;2023-02-11T10:02:19;58.03;;;23.20;;
2313;SDS011;42279;51.388;7.000;2023-02-11T10:07:59;36.50;;;19.57;;
2313;SDS011;42279;51.388;7.000;2023-02-11T10:10:34;51.20;;;24.17;;
2313;SDS011;42279;51.388;7.000;2023-02-11T10:13:39;47.50;;;23.53;;
2313;SDS011;42279;51.388;7.000;2023-02-11T10:16:05;36.93;;;21.57;;
2313;SDS011;42279;51.388;7.000;2023-02-11T10:21:05;40.70;;;21.50;;
2313;SDS011;42279;51.388;7.000;2023-02-11T10:23:33;43.77;;;22.40;;
2313;SDS011;42279;51.388;7.000;2023-02-11T10:26:09;43.23;;;19.90;;
2313;SDS011;42279;51.388;7.000;2023-02-11T10:28:37;45.80;;;24.03;;
2313;SDS011;42279;51.388;7.000;2023-02-11T10:31:06;48.47;;;18.87;;
2313;SDS011;42279;51.388;7.000;2023-02-11T10:33:40;42.37;;;22.67;;
2313;SDS011;42279;51.388;7.000;2023-02-11T10:36:09;40.57;;;23.63;;
2313;SDS011;42279;51.388;7.000;2023-02-11T10:38:36;45.63;;;24.90;;
2313;SDS011;42279;51.388;7.000;2023-02-11T10:41:02;44.47;;;24.10;;
2313;SDS011;42279;51.388;7.000;2023-02-11T10:43:31;55.60;;;23.50;;
2313;SDS011;42279;51.388;7.000;2023-02-11T10:45:58;42.70;;;22.93;;
2313;SDS011;42279;51.388;7.000;2023-02-11T10:53:33;51.20;;;24.43;;
2313;SDS011;42279;51.388;7.000;2023-02-11T10:56:00;45.10;;;22.80;;
2313;SDS011;42279;51.388;7.000;2023-02-11T10:58:29;39.27;;;20.33;;
2313;SDS011;42279;51.388;7.000;2023-02-11T11:00:58;40.77;;;23.03;;
2313;SDS011;42279;51.388;7.000;2023-02-11T11:03:25;46.20;;;24.50;;
2313;SDS011;42279;51.388;7.000;2023-02-11T11:05:56;51.70;;;24.67;;
2313;SDS011;42279;51.388;7.000;2023-02-11T11:08:45;54.73;;;22.63;;
2313;SDS011;42279;51.388;7.000;2023-02-11T11:11:11;49.90;;;24.37;;
2313;SDS011;42279;51.388;7.000;2023-02-11T11:13:38;45.33;;;24.30;;
2313;SDS011;42279;51.388;7.000;2023-02-11T11:18:42;44.57;;;24.10;;
2313;SDS011;42279;51.388;7.000;2023-02-11T11:23:59;51.27;;;22.20;;
2313;SDS011;42279;51.388;7.000;2023-02-11T11:26:26;53.23;;;22.80;;
2313;SDS011;42279;51.388;7.000;2023-02-11T11:29:01;54.27;;;24.03;;
2313;SDS011;42279;51.388;7.000;2023-02-11T11:31:35;40.27;;;22.60;;
2313;SDS011;42279;51.388;7.000;2023-02-11T11:34:29;49.33;;;23.53;;
2313;SDS011;42279;51.388;7.000;2023-02-11T11:36:57;46.13;;;23.30;;
2313;SDS011;42279;51.388;7.000;2023-02-11T11:39:25;47.67;;;24.20;;
2313;SDS011;42279;51.388;7.000;2023-02-11T11:42:00;40.53;;;21.07;;
2313;SDS011;42279;51.388;7.000;2023-02-11T11:44:30;41.77;;;19.37;;
2313;SDS011;42279;51.388;7.000;2023-02-11T11:47:06;51.60;;;24.80;;
2313;SDS011;42279;51.388;7.000;2023-02-11T11:52:40;44.67;;;20.13;;
2313;SDS011;42279;51.388;7.000;2023-02-11T11:57:36;37.20;;;20.53;;
2313;SDS011;42279;51.388;7.000;2023-02-11T12:00:02;52.87;;;24.67;;
2313;SDS011;42279;51.388;7.000;2023-02-11T12:08:07;53.23;;;23.70;;
2313;SDS011;42279;51.388;7.000;2023-02-11T12:15:43;49.80;;;22.10;;
2313;SDS011;42279;51.388;7.000;2023-02-11T12:28:36;42.80;;;22.50;;
2313;SDS011;42279;51.388;7.000;2023-02-11T12:33:38;59.97;;;27.10;;
2313;SDS011;42279;51.388;7.000;2023-02-11T12:47:28;51.63;;;25.43;;
2313;SDS011;42279;51.388;7.000;2023-02-11T12:50:06;52.23;;;27.73;;
2313;SDS011;42279;51.388;7.000;2023-02-11T12:55:11;54.47;;;24.70;;
2313;SDS011;42279;51.388;7.000;2023-02-11T12:57:40;52.00;;;27.53;;
2313;SDS011;42279;51.388;7.000;2023-02-11T13:02:41;45.17;;;25.40;;
2313;SDS011;42279;51.388;7.000;2023-02-11T13:05:24;53.47;;;27.00;;
2313;SDS011;42279;51.388;7.000;2023-02-11T13:07:51;56.10;;;26.90;;
2313;SDS011;42279;51.388;7.000;2023-02-11T13:10:25;56.43;;;26.50;;
2313;SDS011;42279;51.388;7.000;2023-02-11T13:12:52;48.50;;;26.40;;
2313;SDS011;42279;51.388;7.000;2023-02-11T13:15:37;59.53;;;28.47;;
2313;SDS011;42279;51.388;7.000;2023-02-11T13:20:55;55.83;;;26.93;;
2313;SDS011;42279;51.388;7.000;2023-02-11T13:26:17;55.33;;;27.27;;
2313;SDS011;42279;51.388;7.000;2023-02-11T13:28:47;58.27;;;26.73;;
2313;SDS011;42279;51.388;7.000;2023-02-11T13:31:15;52.10;;;27.10;;
2313;SDS011;42279;51.388;7.000;2023-02-11T13:33:44;42.97;;;25.00;;
2313;SDS011;42279;51.388;7.000;2023-02-11T13:36:11;60.13;;;28.10;;
2313;SDS011;42279;51.388;7.000;2023-02-11T13:38:37;54.27;;;26.73;;
2313;SDS011;42279;51.388;7.000;2023-02-11T13:41:05;46.47;;;26.37;;
2313;SDS011;42279;51.388;7.000;2023-02-11T13:43:32;56.33;;;27.37;;
2313;SDS011;42279;51.388;7.000;2023-02-11T13:46:00;52.43;;;26.97;;
2313;SDS011;42279;51.388;7.000;2023-02-11T13:50:55;62.23;;;26.80;;
2313;SDS011;42279;51.388;7.000;2023-02-11T13:53:23;61.67;;;27.90;;
2313;SDS011;42279;51.388;7.000;2023-02-11T13:55:50;52.63;;;28.00;;
2313;SDS011;42279;51.388;7.000;2023-02-11T13:58:17;48.93;;;27.17;;
2313;SDS011;42279;51.388;7.000;2023-02-11T14:00:46;47.47;;;27.03;;
2313;SDS011;42279;51.388;7.000;2023-02-11T14:14:02;68.57;;;29.23;;
2313;SDS011;42279;51.388;7.000;2023-02-11T14:16:52;52.87;;;27.27;;
2313;SDS011;42279;51.388;7.000;2023-02-11T14:22:00;54.03;;;23.70;;
2313;SDS011;42279;51.388;7.000;2023-02-11T14:26:57;50.73;;;25.17;;
2313;SDS011;42279;51.388;7.000;2023-02-11T14:29:30;55.20;;;26.53;;
2313;SDS011;42279;51.388;7.000;2023-02-11T14:32:42;52.30;;;27.63;;
2313;SDS011;42279;51.388;7.000;2023-02-11T14:37:44;51.37;;;27.33;;
2313;SDS011;42279;51.388;7.000;2023-02-11T14:43:02;53.07;;;25.87;;
2313;SDS011;42279;51.388;7.000;2023-02-11T14:45:33;49.20;;;26.30;;
2313;SDS011;42279;51.388;7.000;2023-02-11T14:48:03;48.30;;;27.10;;
2313;SDS011;42279;51.388;7.000;2023-02-11T14:53:01;47.83;;;27.57;;
2313;SDS011;42279;51.388;7.000;2023-02-11T14:55:29;48.50;;;26.77;;
2313;SDS011;42279;51.388;7.000;2023-02-11T14:58:11;46.63;;;26.70;;
2313;SDS011;42279;51.388;7.000;2023-02-11T15:00:47;51.13;;;27.50;;
2313;SDS011;42279;51.388;7.000;2023-02-11T15:03:24;56.07;;;26.20;;
2313;SDS011;42279;51.388;7.000;2023-02-11T15:05:55;45.00;;;25.70;;
2313;SDS011;42279;51.388;7.000;2023-02-11T15:08:21;54.77;;;26.77;;
2313;SDS011;42279;51.388;7.000;2023-02-11T15:10:48;60.77;;;26.90;;
2313;SDS011;42279;51.388;7.000;2023-02-11T15:13:15;47.33;;;27.10;;
2313;SDS011;42279;51.388;7.000;2023-02-11T15:15:42;49.73;;;27.90;;
2313;SDS011;42279;51.388;7.000;2023-02-11T15:18:12;49.77;;;26.50;;
2313;SDS011;42279;51.388;7.000;2023-02-11T15:20:45;42.90;;;23.10;;
2313;SDS011;42279;51.388;7.000;2023-02-11T15:23:13;40.10;;;23.50;;
2313;SDS011;42279;51.388;7.000;2023-02-11T15:25:44;51.33;;;30.10;;
2313;SDS011;42279;51.388;7.000;2023-02-11T15:28:21;47.10;;;26.60;;
2313;SDS011;42279;51.388;7.000;2023-02-11T15:30:54;46.50;;;26.20;;
2313;SDS011;42279;51.388;7.000;2023-02-11T15:33:21;52.00;;;27.77;;
2313;SDS011;42279;51.388;7.000;2023-02-11T15:35:49;46.60;;;23.63;;
2313;SDS011;42279;51.388;7.000;2023-02-11T15:38:15;45.30;;;27.07;;
2313;SDS011;42279;51.388;7.000;2023-02-11T15:40:50;55.23;;;27.23;;
2313;SDS011;42279;51.388;7.000;2023-02-11T15:43:16;47.53;;;25.23;;
2313;SDS011;42279;51.388;7.000;2023-02-11T15:45:43;51.53;;;28.70;;
2313;SDS011;42279;51.388;7.000;2023-02-11T15:50:56;47.27;;;26.77;;
2313;SDS011;42279;51.388;7.000;2023-02-11T15:55:50;51.00;;;29.37;;
2313;SDS011;42279;51.388;7.000;2023-02-11T15:58:17;57.87;;;25.63;;
2313;SDS011;42279;51.388;7.000;2023-02-11T16:00:47;54.30;;;28.47;;
2313;SDS011;42279;51.388;7.000;2023-02-11T16:03:20;43.60;;;23.27;;
2313;SDS011;42279;51.388;7.000;2023-02-11T16:05:47;54.13;;;27.90;;
2313;SDS011;42279;51.388;7.000;2023-02-11T16:08:23;55.13;;;27.97;;
2313;SDS011;42279;51.388;7.000;2023-02-11T16:11:00;53.13;;;27.33;;
2313;SDS011;42279;51.388;7.000;2023-02-11T16:13:28;49.57;;;25.67;;
2313;SDS011;42279;51.388;7.000;2023-02-11T16:16:01;50.50;;;27.10;;
2313;SDS011;42279;51.388;7.000;2023-02-11T16:20:58;49.07;;;25.70;;
2313;SDS011;42279;51.388;7.000;2023-02-11T16:23:27;57.97;;;26.30;;
2313;SDS011;42279;51.388;7.000;2023-02-11T16:25:58;44.93;;;23.90;;
2313;SDS011;42279;51.388;7.000;2023-02-11T16:28:25;50.57;;;27.67;;
2313;SDS011;42279;51.388;7.000;2023-02-11T16:30:52;55.97;;;28.33;;
2313;SDS011;42279;51.388;7.000;2023-02-11T16:33:18;51.47;;;25.40;;
2313;SDS011;42279;51.388;7.000;2023-02-11T16:35:45;45.43;;;25.50;;
2313;SDS011;42279;51.388;7.000;2023-02-11T16:38:12;59.30;;;27.67;;
2313;SDS011;42279;51.388;7.000;2023-02-11T16:40:41;50.50;;;27.20;;
2313;SDS011;42279;51.388;7.000;2023-02-11T16:43:10;44.70;;;23.87;;
2313;SDS011;42279;51.388;7.000;2023-02-11T16:45:36;50.60;;;28.37;;
2313;SDS011;42279;51.388;7.000;2023-02-11T16:48:06;52.60;;;27.70;;
2313;SDS011;42279;51.388;7.000;2023-02-11T16:50:35;47.60;;;26.27;;
2313;SDS011;42279;51.388;7.000;2023-02-11T16:53:01;52.43;;;26.40;;
2313;SDS011;42279;51.388;7.000;2023-02-11T16:55:31;53.13;;;28.37;;
2313;SDS011;42279;51.388;7.000;2023-02-11T16:57:57;56.40;;;27.50;;